Time;durP1;ratioP1;P1;durP2;ratioP2;P2;SDS_P1;SDS_P2;PMS_P1;PMS_P2;Temp;Humidity;BMP_temperature;BMP_pressure;BME280_temperature;BME280_humidity;BME280_pressure;Samples;Min_cycle;Max_cycle;Signal;HPM_P1;HPM_P2
2022/04/03 00:00:32;;;;;;;4.57;2.78;;;0.80;99.90;;;;;;5081468;28;20390;-75
2022/04/03 00:02:58;;;;;;;4.10;1.98;;;0.40;99.90;;;;;;5062056;28;20119;-80
2022/04/03 00:05:24;;;;;;;3.47;2.63;;;0.40;99.90;;;;;;5081422;28;20387;-84
2022/04/03 00:07:49;;;;;;;4.60;2.53;;;1.30;99.90;;;;;;5081260;28;20039;-75
2022/04/03 00:10:15;;;;;;;8.65;2.67;;;1.00;99.90;;;;;;5082769;28;20104;-77
2022/04/03 00:12:41;;;;;;;5.63;3.13;;;0.60;99.90;;;;;;5079507;28;20412;-74
2022/04/03 00:15:07;;;;;;;8.73;2.92;;;0.50;99.90;;;;;;5078733;28;20062;-83
2022/04/03 00:17:33;;;;;;;4.20;2.25;;;0.50;99.90;;;;;;5064996;28;20086;-79
2022/04/03 00:19:59;;;;;;;5.68;3.22;;;0.60;99.90;;;;;;5100555;28;20464;-77
2022/04/03 00:22:25;;;;;;;4.78;3.08;;;-0.50;99.90;;;;;;5099493;28;20108;-74
2022/04/03 00:24:52;;;;;;;5.70;2.58;;;0.70;99.90;;;;;;5097617;28;20387;-79
2022/04/03 00:27:18;;;;;;;5.13;2.65;;;0.70;99.90;;;;;;5079635;28;20083;-78
2022/04/03 00:29:43;;;;;;;5.10;2.78;;;0.70;99.90;;;;;;5100098;28;20062;-72
2022/04/03 00:32:09;;;;;;;5.47;2.58;;;0.70;99.90;;;;;;5100555;28;20036;-75
2022/04/03 00:34:35;;;;;;;5.82;2.92;;;0.70;99.90;;;;;;5080492;28;20167;-78
2022/04/03 00:37:01;;;;;;;6.28;3.00;;;1.30;99.90;;;;;;5078085;28;20032;-74
2022/04/03 00:39:27;;;;;;;7.03;3.30;;;2.30;99.90;;;;;;5080385;28;20040;-73
2022/04/03 00:41:53;;;;;;;4.47;2.60;;;1.50;99.90;;;;;;5100723;28;20386;-75
2022/04/03 00:44:18;;;;;;;7.07;2.88;;;0.60;99.90;;;;;;5081733;28;20043;-75
2022/04/03 00:46:48;;;;;;;6.05;2.63;;;1.10;99.90;;;;;;5078842;28;20040;-72
2022/04/03 00:49:14;;;;;;;5.57;2.95;;;0.70;99.90;;;;;;5097172;28;20082;-77
2022/04/03 00:51:40;;;;;;;4.22;2.78;;;0.70;99.90;;;;;;5099643;28;20063;-72
2022/04/03 00:54:08;;;;;;;6.18;3.25;;;0.70;99.90;;;;;;5081967;28;20036;-74
2022/04/03 00:56:34;;;;;;;7.85;2.70;;;1.30;99.90;;;;;;5063492;28;20048;-78
2022/04/03 00:59:00;;;;;;;4.53;2.58;;;1.50;99.90;;;;;;5078050;28;20366;-82
2022/04/03 01:01:26;;;;;;;2.97;2.67;;;0.60;99.90;;;;;;5063186;28;20505;-74
2022/04/03 01:03:51;;;;;;;7.43;2.53;;;0.70;99.90;;;;;;5065773;28;20042;-83
2022/04/03 01:06:17;;;;;;;4.55;2.72;;;0.60;99.90;;;;;;5064923;28;20161;-79
2022/04/03 01:08:43;;;;;;;5.75;2.28;;;1.10;99.90;;;;;;5078861;28;20040;-80
2022/04/03 01:11:13;;;;;;;5.05;2.90;;;0.70;99.90;;;;;;5077992;28;20109;-77
2022/04/03 01:13:52;;;;;;;9.20;3.30;;;0.60;99.90;;;;;;5099275;28;20040;-77
2022/04/03 01:16:18;;;;;;;3.67;2.58;;;1.10;99.90;;;;;;5100422;28;20069;-82
2022/04/03 01:18:45;;;;;;;3.83;2.30;;;0.50;99.90;;;;;;5077888;28;20048;-79
2022/04/03 01:21:11;;;;;;;6.60;3.08;;;0.40;99.90;;;;;;5077890;28;20052;-78
2022/04/03 01:23:37;;;;;;;3.53;2.33;;;0.50;99.90;;;;;;5081161;28;20101;-76
2022/04/03 01:26:02;;;;;;;3.80;2.70;;;0.50;99.90;;;;;;5081084;28;20039;-75
2022/04/03 01:28:28;;;;;;;5.03;2.20;;;1.10;99.90;;;;;;5098937;28;20100;-73
2022/04/03 01:30:55;;;;;;;5.38;2.85;;;0.80;99.90;;;;;;5096219;28;20048;-80
2022/04/03 01:33:21;;;;;;;6.55;2.88;;;0.60;99.90;;;;;;5095875;28;20044;-82
2022/04/03 01:35:46;;;;;;;4.10;2.58;;;3.20;99.90;;;;;;5065128;28;20177;-78
2022/04/03 01:38:12;;;;;;;4.43;2.97;;;0.70;99.90;;;;;;5081757;28;20068;-82
2022/04/03 01:40:38;;;;;;;10.02;2.83;;;0.80;99.90;;;;;;5097179;28;20052;-84
2022/04/03 01:43:06;;;;;;;3.25;2.42;;;1.00;99.90;;;;;;5060674;28;20047;-75
2022/04/03 01:45:32;;;;;;;4.68;2.75;;;0.80;99.90;;;;;;5063045;28;20048;-83
2022/04/03 01:47:59;;;;;;;4.38;2.80;;;0.90;99.90;;;;;;5098886;28;20042;-78
2022/04/03 01:50:25;;;;;;;3.05;2.40;;;0.90;99.90;;;;;;5099410;28;20118;-75
2022/04/03 01:52:52;;;;;;;3.92;2.42;;;0.90;99.90;;;;;;5078105;28;20093;-75
2022/04/03 01:55:17;;;;;;;7.88;2.30;;;0.90;99.90;;;;;;5095838;28;20472;-77
2022/04/03 01:57:43;;;;;;;6.65;2.47;;;0.90;99.90;;;;;;5064261;28;20046;-83
2022/04/03 02:00:10;;;;;;;3.95;2.35;;;0.80;99.90;;;;;;5081425;28;20043;-82
2022/04/03 02:02:37;;;;;;;7.22;2.67;;;0.90;99.90;;;;;;5079515;28;20040;-82
2022/04/03 02:05:03;;;;;;;4.30;2.45;;;0.80;99.90;;;;;;5077640;28;20403;-83
2022/04/03 02:07:30;;;;;;;4.53;2.28;;;0.90;99.90;;;;;;5078047;28;20545;-78
2022/04/03 02:09:56;;;;;;;4.65;2.35;;;0.80;99.90;;;;;;5080890;28;20088;-71
2022/04/03 02:12:22;;;;;;;4.63;2.85;;;1.80;99.90;;;;;;5099735;28;20044;-74
2022/04/03 02:14:48;;;;;;;6.57;2.85;;;0.80;99.90;;;;;;5060408;28;20047;-82
2022/04/03 02:17:13;;;;;;;4.00;2.53;;;1.70;99.90;;;;;;5061186;28;20036;-73
2022/04/03 02:19:39;;;;;;;6.07;2.55;;;0.70;99.90;;;;;;5097885;28;20044;-78
2022/04/03 02:22:04;;;;;;;3.75;2.97;;;1.20;99.90;;;;;;5098756;28;20046;-75
2022/04/03 02:24:30;;;;;;;8.68;3.15;;;0.80;99.90;;;;;;5099120;28;20224;-79
2022/04/03 02:26:56;;;;;;;3.72;2.47;;;0.80;99.90;;;;;;5077779;28;20120;-73
2022/04/03 02:29:22;;;;;;;3.25;2.35;;;0.80;99.90;;;;;;5095191;28;20056;-81
2022/04/03 02:31:47;;;;;;;4.47;3.08;;;1.40;99.90;;;;;;5100521;28;20085;-76
2022/04/03 02:34:13;;;;;;;4.53;3.25;;;0.70;99.90;;;;;;5103251;28;20706;-79
2022/04/03 02:36:43;;;;;;;4.38;2.70;;;0.60;99.90;;;;;;5082829;28;20056;-74
2022/04/03 02:39:09;;;;;;;7.75;3.13;;;0.50;99.90;;;;;;5081405;28;20332;-80
2022/04/03 02:41:35;;;;;;;3.83;2.22;;;0.50;99.90;;;;;;5082443;28;20059;-72
2022/04/03 02:44:01;;;;;;;4.38;2.30;;;0.40;99.90;;;;;;5083854;28;20043;-73
2022/04/03 02:46:27;;;;;;;5.40;2.78;;;0.40;99.90;;;;;;5068202;28;20071;-80
2022/04/03 02:48:52;;;;;;;3.28;2.00;;;0.40;99.90;;;;;;5080977;28;20079;-79
2022/04/03 02:51:18;;;;;;;3.83;2.30;;;0.40;99.90;;;;;;5063341;28;20410;-72
2022/04/03 02:53:44;;;;;;;3.92;2.22;;;0.40;99.90;;;;;;5083751;28;20096;-78
2022/04/03 02:56:09;;;;;;;1.98;1.80;;;0.40;99.90;;;;;;5084544;28;20494;-79
2022/04/03 02:58:35;;;;;;;6.18;2.13;;;0.30;99.90;;;;;;5082972;28;20130;-77
2022/04/03 03:01:00;;;;;;;2.88;2.00;;;0.80;99.90;;;;;;5098959;28;20109;-76
2022/04/03 03:03:26;;;;;;;5.45;2.15;;;0.50;99.90;;;;;;5081272;28;20131;-80
2022/04/03 03:05:52;;;;;;;3.80;1.83;;;0.50;99.90;;;;;;5101832;28;20064;-82
2022/04/03 03:08:18;;;;;;;3.08;1.83;;;2.20;99.90;;;;;;5102599;28;20391;-78
2022/04/03 03:10:43;;;;;;;2.97;2.03;;;0.50;99.90;;;;;;5099318;28;20384;-73
2022/04/03 03:13:09;;;;;;;2.45;1.60;;;0.60;99.90;;;;;;5099303;28;20042;-72
2022/04/03 03:15:35;;;;;;;3.85;1.90;;;1.20;99.90;;;;;;5065077;28;20133;-81
2022/04/03 03:18:00;;;;;;;3.50;2.20;;;0.60;99.90;;;;;;5083990;28;20150;-73
2022/04/03 03:20:26;;;;;;;4.20;2.10;;;0.60;99.90;;;;;;5102527;28;20034;-79
2022/04/03 03:22:52;;;;;;;4.43;1.83;;;0.60;99.90;;;;;;5098900;28;20085;-82
2022/04/03 03:25:18;;;;;;;2.33;1.70;;;0.60;99.90;;;;;;5079913;28;20371;-74
2022/04/03 03:27:44;;;;;;;3.53;1.90;;;0.70;99.90;;;;;;5081705;28;20044;-73
2022/04/03 03:30:11;;;;;;;2.00;1.33;;;0.70;99.90;;;;;;5066521;28;20135;-75
2022/04/03 03:32:37;;;;;;;2.95;2.35;;;0.90;99.90;;;;;;5082939;28;20044;-74
2022/04/03 03:35:03;;;;;;;5.00;1.63;;;0.80;99.90;;;;;;5080446;28;20040;-73
2022/04/03 03:37:29;;;;;;;3.95;1.60;;;0.80;99.90;;;;;;5080878;28;20492;-74
2022/04/03 03:39:55;;;;;;;3.47;1.48;;;2.80;99.90;;;;;;5101124;28;20046;-79
2022/04/03 03:42:20;;;;;;;3.17;1.23;;;0.80;99.90;;;;;;5102089;28;20475;-80
2022/04/03 03:44:46;;;;;;;2.80;1.25;;;0.90;99.90;;;;;;5081440;28;20047;-77
2022/04/03 03:47:12;;;;;;;5.03;1.60;;;0.90;99.90;;;;;;5079779;28;20040;-80
2022/04/03 03:49:38;;;;;;;44.85;3.33;;;1.40;99.90;;;;;;5099403;28;20503;-74
2022/04/03 03:52:04;;;;;;;7.32;1.27;;;1.00;99.90;;;;;;5066616;28;20036;-74
2022/04/03 03:54:29;;;;;;;2.38;1.50;;;1.00;99.90;;;;;;5101817;28;20127;-81
2022/04/03 03:56:55;;;;;;;2.72;1.75;;;-0.50;99.90;;;;;;5098426;28;20479;-73
2022/04/03 03:59:21;;;;;;;1.55;1.40;;;0.90;99.90;;;;;;5098380;28;20032;-73
2022/04/03 04:01:46;;;;;;;3.65;1.55;;;0.90;99.90;;;;;;5081177;28;20391;-84
2022/04/03 04:04:12;;;;;;;1.60;1.00;;;0.90;99.90;;;;;;5083808;28;20108;-80
2022/04/03 04:06:38;;;;;;;2.20;1.27;;;0.80;99.90;;;;;;5101436;28;20127;-79
2022/04/03 04:09:04;;;;;;;4.15;1.70;;;1.20;99.90;;;;;;5079089;28;20044;-80
2022/04/03 04:11:30;;;;;;;3.13;1.33;;;0.90;99.90;;;;;;5079816;28;20488;-78
2022/04/03 04:13:55;;;;;;;2.70;1.27;;;0.90;99.90;;;;;;5101216;28;20119;-74
2022/04/03 04:16:21;;;;;;;3.65;1.40;;;0.90;99.90;;;;;;5101590;28;20044;-80
2022/04/03 04:18:47;;;;;;;4.95;1.70;;;1.40;99.90;;;;;;5081410;28;20405;-81
2022/04/03 04:21:13;;;;;;;0.90;0.90;;;0.80;99.90;;;;;;5078645;28;20040;-84
2022/04/03 04:23:39;;;;;;;4.88;1.20;;;0.80;99.90;;;;;;5098782;28;20348;-77
2022/04/03 04:26:04;;;;;;;3.92;1.42;;;0.80;99.90;;;;;;5062286;28;20072;-75
2022/04/03 04:28:30;;;;;;;1.63;1.13;;;0.80;99.90;;;;;;5097010;28;20436;-75
2022/04/03 04:30:57;;;;;;;2.30;1.08;;;0.80;99.90;;;;;;5082028;28;20389;-78
2022/04/03 04:33:24;;;;;;;1.83;1.50;;;0.80;99.90;;;;;;5083079;28;20082;-82
2022/04/03 04:35:50;;;;;;;1.77;1.30;;;0.90;99.90;;;;;;5063479;28;20051;-73
2022/04/03 04:38:17;;;;;;;2.70;1.30;;;0.80;99.90;;;;;;5079540;28;20036;-84
2022/04/03 04:40:43;;;;;;;7.95;1.55;;;0.80;99.90;;;;;;5080394;28;20032;-82
2022/04/03 04:43:09;;;;;;;2.72;0.98;;;3.20;99.90;;;;;;5082348;28;20047;-83
2022/04/03 04:45:35;;;;;;;2.53;1.30;;;0.90;99.90;;;;;;5083034;28;20046;-82
2022/04/03 04:48:00;;;;;;;3.35;1.20;;;0.60;99.90;;;;;;5097201;28;20048;-79
2022/04/03 04:50:27;;;;;;;2.20;1.33;;;0.90;99.90;;;;;;5096878;28;20561;-82
2022/04/03 04:52:54;;;;;;;3.50;1.40;;;1.10;99.90;;;;;;5099968;28;20032;-75
2022/04/03 04:55:19;;;;;;;1.50;1.20;;;0.70;99.90;;;;;;5102729;28;20361;-75
2022/04/03 04:57:50;;;;;;;2.10;1.23;;;0.60;99.90;;;;;;5098080;28;20139;-78
2022/04/03 05:00:17;;;;;;;3.63;1.38;;;0.70;99.90;;;;;;5100884;28;20267;-74
2022/04/03 05:02:46;;;;;;;3.58;1.50;;;0.70;99.90;;;;;;5082006;28;20325;-77
2022/04/03 05:05:13;;;;;;;4.68;1.60;;;0.70;99.90;;;;;;5078551;28;20119;-80
2022/04/03 05:07:39;;;;;;;1.70;1.13;;;0.50;99.90;;;;;;5097686;28;20107;-76
2022/04/03 05:10:05;;;;;;;4.65;1.30;;;0.50;99.90;;;;;;5081943;28;20077;-73
2022/04/03 05:12:31;;;;;;;4.28;1.75;;;1.00;99.90;;;;;;5100141;28;20130;-78
2022/04/03 05:14:57;;;;;;;4.30;2.03;;;0.50;99.90;;;;;;5097429;28;20149;-78
2022/04/03 05:17:23;;;;;;;2.78;1.38;;;0.40;99.90;;;;;;5062550;28;20044;-82
2022/04/03 05:19:48;;;;;;;3.55;1.70;;;0.30;99.90;;;;;;5100892;28;20047;-76
2022/04/03 05:22:14;;;;;;;1.48;1.15;;;1.10;99.90;;;;;;5101810;28;20032;-79
2022/04/03 05:24:39;;;;;;;4.75;1.65;;;0.30;99.90;;;;;;5081525;28;20133;-77
2022/04/03 05:27:05;;;;;;;3.95;1.30;;;0.00;99.90;;;;;;5078285;28;20479;-75
2022/04/03 05:29:34;;;;;;;3.03;1.63;;;0.30;99.90;;;;;;5067178;28;20052;-84
2022/04/03 05:32:00;;;;;;;3.10;1.20;;;0.50;99.90;;;;;;5072109;28;20047;-75
2022/04/03 05:34:26;;;;;;;2.95;1.27;;;0.30;99.90;;;;;;5074248;28;20043;-77
2022/04/03 05:36:51;;;;;;;4.13;1.92;;;0.30;99.90;;;;;;5098464;28;20032;-75
2022/04/03 05:39:17;;;;;;;4.50;1.50;;;0.90;99.90;;;;;;5086285;28;20561;-76
2022/04/03 05:41:43;;;;;;;3.80;1.65;;;0.10;99.90;;;;;;5087432;28;20090;-84
2022/04/03 05:44:09;;;;;;;4.18;1.63;;;1.30;99.90;;;;;;5100069;28;20056;-81
2022/04/03 05:46:34;;;;;;;4.55;1.80;;;0.30;99.90;;;;;;5089814;28;20069;-80
2022/04/03 05:49:00;;;;;;;1.52;1.35;;;0.40;99.90;;;;;;5097272;28;20035;-85
2022/04/03 05:51:26;;;;;;;4.53;1.58;;;0.40;99.90;;;;;;5087212;28;20040;-86
2022/04/03 05:53:52;;;;;;;2.90;1.15;;;0.40;99.90;;;;;;5087763;28;20036;-78
2022/04/03 05:56:17;;;;;;;12.55;1.80;;;0.50;99.90;;;;;;5099920;28;20490;-84
2022/04/03 05:58:43;;;;;;;2.30;1.00;;;0.50;99.90;;;;;;5090301;28;20051;-84
2022/04/03 06:01:09;;;;;;;2.35;1.60;;;0.30;99.90;;;;;;5069046;28;20047;-84
2022/04/03 06:03:35;;;;;;;1.55;1.25;;;0.90;99.90;;;;;;5096375;28;20491;-73
2022/04/03 06:06:01;;;;;;;3.05;1.60;;;0.50;99.90;;;;;;5100898;28;20032;-76
2022/04/03 06:08:26;;;;;;;3.40;1.30;;;0.30;99.90;;;;;;5077127;28;20038;-85
2022/04/03 06:10:52;;;;;;;2.40;1.25;;;1.00;99.90;;;;;;5092757;28;20048;-74
2022/04/03 06:13:18;;;;;;;2.33;1.23;;;0.60;99.90;;;;;;5100566;28;20038;-78
2022/04/03 06:15:46;;;;;;;1.98;1.10;;;1.20;99.90;;;;;;5090330;28;20044;-73
2022/04/03 06:18:15;;;;;;;7.45;1.30;;;0.70;99.90;;;;;;5100105;28;20411;-78
2022/04/03 06:20:41;;;;;;;2.72;1.20;;;0.70;99.90;;;;;;5090005;28;20040;-75
2022/04/03 06:23:15;;;;;;;3.83;1.00;;;0.80;99.90;;;;;;5102960;28;20088;-74
2022/04/03 06:25:44;;;;;;;4.38;1.17;;;0.90;99.90;;;;;;5103956;28;20035;-78
2022/04/03 06:28:10;;;;;;;4.40;1.00;;;1.00;99.90;;;;;;5085787;28;20049;-73
2022/04/03 06:30:36;;;;;;;2.58;1.15;;;1.10;99.90;;;;;;5079669;28;20041;-73
2022/04/03 06:33:02;;;;;;;6.03;0.88;;;1.20;99.90;;;;;;5081888;28;20047;-75
2022/04/03 06:35:28;;;;;;;2.28;0.80;;;3.30;99.90;;;;;;5083148;28;20043;-81
2022/04/03 06:37:54;;;;;;;2.45;1.17;;;1.30;99.90;;;;;;5080694;28;20055;-83
2022/04/03 06:40:20;;;;;;;5.28;1.35;;;1.30;99.90;;;;;;5078384;28;20400;-75
2022/04/03 06:42:46;;;;;;;4.10;0.93;;;1.30;99.90;;;;;;5077828;28;20075;-77
2022/04/03 06:45:13;;;;;;;1.55;0.80;;;1.50;99.90;;;;;;5078135;28;20102;-77
2022/04/03 06:47:39;;;;;;;7.28;1.20;;;1.50;99.90;;;;;;5078410;28;20492;-75
2022/04/03 06:50:05;;;;;;;3.45;1.30;;;1.60;99.90;;;;;;5079142;28;20276;-79
2022/04/03 06:52:30;;;;;;;3.70;1.15;;;1.60;99.90;;;;;;5083239;28;20027;-73
2022/04/03 06:54:56;;;;;;;3.92;1.10;;;1.70;99.90;;;;;;5081702;28;20443;-82
2022/04/03 06:57:21;;;;;;;6.20;1.08;;;2.20;99.90;;;;;;5061435;28;20426;-79
2022/04/03 06:59:47;;;;;;;9.18;2.55;;;1.80;99.90;;;;;;5078922;28;20040;-84
2022/04/03 07:02:13;;;;;;;1.60;0.98;;;1.90;99.90;;;;;;5082409;28;20565;-82
2022/04/03 07:04:39;;;;;;;6.47;1.20;;;1.70;99.90;;;;;;5081141;28;20111;-77
2022/04/03 07:07:04;;;;;;;9.20;2.88;;;1.80;99.90;;;;;;5079331;28;20036;-80
2022/04/03 07:09:31;;;;;;;6.60;1.00;;;2.20;99.90;;;;;;5078929;28;20127;-84
2022/04/03 07:11:57;;;;;;;4.88;0.60;;;2.30;99.90;;;;;;5079158;28;20032;-73
2022/04/03 07:14:23;;;;;;;6.97;1.00;;;2.40;99.90;;;;;;5082984;28;20051;-82
2022/04/03 07:16:49;;;;;;;3.05;0.60;;;2.50;99.90;;;;;;5079943;28;20040;-75
2022/04/03 07:19:14;;;;;;;4.10;0.77;;;3.00;99.90;;;;;;5077241;28;20036;-73
2022/04/03 07:21:40;;;;;;;4.22;0.80;;;3.20;99.90;;;;;;5079819;28;20035;-75
2022/04/03 07:24:06;;;;;;;3.28;1.13;;;2.90;99.90;;;;;;5080704;28;20396;-80
2022/04/03 07:26:32;;;;;;;1.15;0.65;;;2.90;99.90;;;;;;5081355;28;20480;-81
2022/04/03 07:28:58;;;;;;;4.05;0.77;;;1.80;99.90;;;;;;5066886;28;20204;-73
2022/04/03 07:31:25;;;;;;;3.22;0.70;;;3.10;99.90;;;;;;5071929;28;20476;-83
2022/04/03 07:33:50;;;;;;;2.60;0.73;;;3.10;99.90;;;;;;5089296;28;20518;-80
2022/04/03 07:36:16;;;;;;;6.30;1.58;;;3.60;99.90;;;;;;5090727;28;20036;-74
2022/04/03 07:38:42;;;;;;;4.30;0.70;;;4.60;99.90;;;;;;5090213;28;20056;-80
2022/04/03 07:41:07;;;;;;;2.25;0.60;;;4.00;99.90;;;;;;5088718;28;20052;-85
2022/04/03 07:43:33;;;;;;;6.65;0.90;;;3.50;99.90;;;;;;5089198;28;20115;-85
2022/04/03 07:45:59;;;;;;;4.85;0.52;;;3.50;99.90;;;;;;5089425;28;20048;-78
2022/04/03 07:48:24;;;;;;;5.78;0.45;;;3.60;99.90;;;;;;5090235;28;20040;-78
2022/04/03 07:50:51;;;;;;;2.97;0.40;;;3.70;99.90;;;;;;5088709;28;20051;-78
2022/04/03 07:53:17;;;;;;;3.90;0.60;;;4.70;99.90;;;;;;5088059;28;20067;-80
2022/04/03 07:55:42;;;;;;;3.42;0.50;;;4.00;99.90;;;;;;5067635;28;20554;-86
2022/04/03 07:58:08;;;;;;;2.40;0.80;;;4.10;99.90;;;;;;5070074;28;20059;-94
2022/04/03 08:00:34;;;;;;;3.47;0.68;;;3.10;99.90;;;;;;5088988;28;20119;-86
2022/04/03 08:03:00;;;;;;;6.22;0.70;;;4.20;99.90;;;;;;5088570;28;20484;-86
2022/04/03 08:05:25;;;;;;;3.22;0.65;;;3.70;99.90;;;;;;5089622;28;20044;-75
2022/04/03 08:07:51;;;;;;;2.20;0.40;;;4.20;99.90;;;;;;5088168;28;20380;-83
2022/04/03 08:10:19;;;;;;;5.88;0.40;;;4.40;99.90;;;;;;5088210;28;20032;-83
2022/04/03 08:12:46;;;;;;;2.92;0.40;;;3.80;99.90;;;;;;5071440;28;20040;-86
2022/04/03 08:15:13;;;;;;;9.23;0.60;;;4.30;99.90;;;;;;5070867;28;20138;-82
2022/04/03 08:17:39;;;;;;;3.60;0.55;;;4.40;99.90;;;;;;5071827;28;20040;-86
2022/04/03 08:20:08;;;;;;;5.32;1.85;;;4.30;99.90;;;;;;5087813;28;20032;-77
2022/04/03 08:22:34;;;;;;;6.53;0.80;;;4.70;99.90;;;;;;5088241;28;20039;-76
2022/04/03 08:24:59;;;;;;;4.65;0.40;;;4.10;99.90;;;;;;5071404;28;20048;-76
2022/04/03 08:27:49;;;;;;;3.40;0.50;;;4.40;99.90;;;;;;5088065;28;20036;-80
2022/04/03 08:30:27;;;;;;;4.10;0.30;;;4.80;99.90;;;;;;5088436;28;20075;-79
2022/04/03 08:32:53;;;;;;;5.00;0.50;;;4.50;99.90;;;;;;5089393;28;20031;-80
2022/04/03 08:35:20;;;;;;;7.43;0.65;;;4.70;99.90;;;;;;5070721;28;20047;-87
2022/04/03 08:37:48;;;;;;;4.35;0.65;;;4.70;99.90;;;;;;5071025;28;20455;-88
2022/04/03 08:40:14;;;;;;;1.77;0.50;;;4.70;99.90;;;;;;5071092;28;20130;-86
2022/04/03 08:42:40;;;;;;;3.13;0.68;;;4.80;99.90;;;;;;5054129;28;20130;-82
2022/04/03 08:45:13;;;;;;;2.78;0.75;;;5.00;99.90;;;;;;5068098;28;20037;-81
2022/04/03 08:47:45;;;;;;;3.30;0.40;;;5.10;99.90;;;;;;5055838;28;20043;-86
2022/04/03 08:50:15;;;;;;;2.75;0.63;;;7.00;99.90;;;;;;5070201;28;20050;-77
2022/04/03 08:52:45;;;;;;;3.97;0.50;;;5.30;99.90;;;;;;5054325;28;20068;-83
2022/04/03 08:55:11;;;;;;;1.45;0.50;;;5.40;99.90;;;;;;5068993;28;20044;-86
2022/04/03 08:57:37;;;;;;;2.92;0.50;;;4.70;99.90;;;;;;5053708;28;20077;-82
2022/04/03 09:00:05;;;;;;;1.92;0.55;;;5.00;99.90;;;;;;5070398;28;20032;-76
2022/04/03 09:02:30;;;;;;;3.42;0.50;;;5.40;99.90;;;;;;5033644;28;20080;-77
2022/04/03 09:04:56;;;;;;;4.80;0.40;;;7.40;99.90;;;;;;5084952;28;20459;-83
2022/04/03 09:07:22;;;;;;;9.23;0.77;;;5.40;99.90;;;;;;5070694;28;20048;-83
2022/04/03 09:10:00;;;;;;;2.97;0.30;;;5.40;99.90;;;;;;5069888;28;20427;-85
2022/04/03 09:12:26;;;;;;;2.28;0.38;;;5.40;99.90;;;;;;5054352;28;20043;-80
2022/04/03 09:14:55;;;;;;;2.67;0.30;;;5.10;99.90;;;;;;5070602;28;20723;-82
2022/04/03 09:17:40;;;;;;;4.30;0.47;;;5.30;99.90;;;;;;5070200;28;20411;-79
2022/04/03 09:20:08;;;;;;;4.70;0.20;;;5.60;99.90;;;;;;5070763;28;20044;-85
2022/04/03 09:22:36;;;;;;;6.07;0.32;;;5.80;99.90;;;;;;5072143;28;20043;-81
2022/04/03 09:25:13;;;;;;;9.05;1.00;;;5.50;99.90;;;;;;5079733;28;20053;-81
2022/04/03 09:27:49;;;;;;;4.90;0.80;;;5.60;99.90;;;;;;5049011;28;20052;-86
2022/04/03 09:30:17;;;;;;;1.75;0.45;;;5.00;99.90;;;;;;5080599;28;20079;-87
2022/04/03 09:32:50;;;;;;;1.83;0.40;;;5.90;99.90;;;;;;5046795;28;20043;-86
2022/04/03 09:35:18;;;;;;;1.42;0.43;;;5.50;99.90;;;;;;5080106;28;20400;-76
2022/04/03 09:38:07;;;;;;;1.27;0.30;;;5.20;99.90;;;;;;5099621;28;20410;-83
2022/04/03 09:40:35;;;;;;;1.25;0.40;;;5.80;99.90;;;;;;5078606;28;20508;-78
2022/04/03 09:43:11;;;;;;;2.25;0.70;;;6.00;99.90;;;;;;5077980;28;20044;-86
2022/04/03 09:45:53;;;;;;;4.68;0.65;;;6.10;99.90;;;;;;5078633;28;20043;-79
2022/04/03 09:48:33;;;;;;;2.67;0.43;;;5.70;99.90;;;;;;5064537;28;20051;-78
2022/04/03 09:51:02;;;;;;;4.55;0.70;;;6.10;99.90;;;;;;5081456;28;20106;-76
2022/04/03 09:53:37;;;;;;;4.93;0.75;;;5.50;99.90;;;;;;5061825;28;20415;-85
2022/04/03 09:56:03;;;;;;;1.48;0.30;;;4.80;99.90;;;;;;5046139;28;20040;-83
2022/04/03 09:58:29;;;;;;;1.73;0.25;;;6.20;99.90;;;;;;5048316;28;20411;-80
2022/04/03 10:00:55;;;;;;;2.25;0.25;;;5.40;99.90;;;;;;5099626;28;20122;-87
2022/04/03 10:03:23;;;;;;;3.38;0.45;;;5.90;99.90;;;;;;5063351;28;20128;-82
2022/04/03 10:05:50;;;;;;;3.55;0.90;;;6.00;99.90;;;;;;5061256;28;20181;-82
2022/04/03 10:08:17;;;;;;;5.00;1.77;;;6.20;99.90;;;;;;5078957;28;20055;-83
2022/04/03 10:10:45;;;;;;;4.18;0.30;;;6.80;99.90;;;;;;5081858;28;20508;-79
2022/04/03 10:13:10;;;;;;;0.68;0.22;;;6.40;99.90;;;;;;5080658;28;20040;-82
2022/04/03 10:15:36;;;;;;;1.13;0.30;;;6.50;99.90;;;;;;5096951;28;20055;-76
2022/04/03 10:18:04;;;;;;;2.28;0.40;;;7.90;99.90;;;;;;5096040;28;20111;-84
2022/04/03 10:20:30;;;;;;;3.22;0.52;;;6.70;99.90;;;;;;5098644;28;20449;-85
2022/04/03 10:23:04;;;;;;;1.70;0.40;;;6.70;99.90;;;;;;5081643;28;20036;-81
2022/04/03 10:25:36;;;;;;;1.85;0.20;;;6.80;99.90;;;;;;5062634;28;20042;-82
2022/04/03 10:28:05;;;;;;;1.88;0.20;;;6.80;99.90;;;;;;5095054;28;20052;-86
2022/04/03 10:31:07;;;;;;;3.35;0.50;;;6.80;99.90;;;;;;5080681;28;20043;-78
2022/04/03 10:33:42;;;;;;;3.97;0.55;;;6.70;99.90;;;;;;5074370;28;20048;-82
2022/04/03 10:36:10;;;;;;;3.25;0.55;;;6.70;99.90;;;;;;5060543;28;20492;-84
2022/04/03 10:38:47;;;;;;;3.63;0.50;;;6.60;99.90;;;;;;5064719;28;20493;-77
2022/04/03 10:41:30;;;;;;;1.65;0.50;;;6.70;99.90;;;;;;5080830;28;20430;-80
2022/04/03 10:44:19;;;;;;;3.53;0.28;;;6.30;99.90;;;;;;5096144;28;20044;-87
2022/04/03 10:47:03;;;;;;;1.02;0.10;;;5.40;99.90;;;;;;5061258;28;20314;-83
2022/04/03 10:49:47;;;;;;;1.90;0.30;;;8.80;99.90;;;;;;5079237;28;20047;-75
2022/04/03 10:52:36;;;;;;;1.55;0.32;;;6.80;99.90;;;;;;5081339;28;20465;-83
2022/04/03 10:55:21;;;;;;;4.85;0.28;;;6.70;99.90;;;;;;5058511;28;20059;-71
2022/04/03 10:57:47;;;;;;;1.60;0.30;;;6.60;99.90;;;;;;5085828;28;20031;-83
2022/04/03 11:00:13;;;;;;;0.52;0.10;;;6.60;99.90;;;;;;5083852;28;20129;-73
2022/04/03 11:02:50;;;;;;;2.83;0.40;;;6.60;99.90;;;;;;5102850;28;20067;-73
2022/04/03 11:05:36;;;;;;;1.10;0.10;;;6.70;99.90;;;;;;5103034;28;20380;-83
2022/04/03 11:08:04;;;;;;;1.08;0.00;;;6.80;99.90;;;;;;5065521;28;20055;-76
2022/04/03 11:10:55;;;;;;;1.52;0.10;;;6.70;99.90;;;;;;5091275;28;20181;-76
2022/04/03 11:13:38;;;;;;;2.10;0.17;;;6.80;99.90;;;;;;5086650;28;20043;-82
2022/04/03 11:16:09;;;;;;;1.23;0.10;;;6.80;99.90;;;;;;5077637;28;20044;-73
2022/04/03 11:18:35;;;;;;;1.40;0.20;;;6.80;99.90;;;;;;5092181;28;20443;-80
2022/04/03 11:21:25;;;;;;;1.95;0.30;;;6.80;99.90;;;;;;5088834;28;20086;-74
2022/04/03 11:24:11;;;;;;;1.85;1.05;;;7.00;99.90;;;;;;5094721;28;20050;-74
2022/04/03 11:26:38;;;;;;;0.85;0.25;;;7.20;99.90;;;;;;5090581;28;20032;-75
2022/04/03 11:29:05;;;;;;;0.90;0.30;;;7.30;99.90;;;;;;5070350;28;20051;-84
2022/04/03 11:31:32;;;;;;;0.75;0.25;;;7.30;99.90;;;;;;5061649;28;20087;-75
2022/04/03 11:33:58;;;;;;;0.45;0.10;;;7.40;99.90;;;;;;5068173;28;20051;-83
2022/04/03 11:36:28;;;;;;;2.38;0.10;;;7.60;99.90;;;;;;5089434;28;20040;-85
2022/04/03 11:38:55;;;;;;;1.52;0.40;;;7.60;99.90;;;;;;5081216;28;20036;-76
2022/04/03 11:41:27;;;;;;;4.53;0.20;;;7.20;99.90;;;;;;5086153;28;20502;-82
2022/04/03 11:44:05;;;;;;;1.77;0.45;;;7.70;99.90;;;;;;5090228;28;20131;-85
2022/04/03 11:46:36;;;;;;;0.32;0.20;;;7.60;99.90;;;;;;5082197;28;20071;-80
2022/04/03 11:49:10;;;;;;;1.52;0.00;;;7.50;99.90;;;;;;5082163;28;20110;-76
2022/04/03 11:51:36;;;;;;;4.38;0.10;;;7.30;99.90;;;;;;5086170;28;20040;-73
2022/04/03 11:54:02;;;;;;;7.22;0.22;;;7.10;99.90;;;;;;5076950;28;20526;-81
2022/04/03 11:56:31;;;;;;;1.60;0.20;;;6.80;99.90;;;;;;5086294;28;20043;-84
2022/04/03 11:58:58;;;;;;;1.77;0.10;;;6.30;99.90;;;;;;5062614;28;20070;-85
2022/04/03 12:01:28;;;;;;;1.38;0.98;;;6.50;99.90;;;;;;5087121;28;20036;-86
2022/04/03 12:04:00;;;;;;;2.35;0.15;;;5.90;99.90;;;;;;5059961;28;20068;-85
2022/04/03 12:06:29;;;;;;;0.47;0.10;;;6.40;99.90;;;;;;5077328;28;20044;-83
2022/04/03 12:08:55;;;;;;;2.63;0.10;;;6.20;99.90;;;;;;5062940;28;20044;-88
2022/04/03 12:11:26;;;;;;;1.65;0.05;;;6.10;99.90;;;;;;5063605;28;20047;-86
2022/04/03 12:14:02;;;;;;;0.85;0.25;;;6.40;99.90;;;;;;5077438;28;20492;-81
2022/04/03 12:16:35;;;;;;;2.22;0.32;;;6.10;99.90;;;;;;5077710;28;20051;-84
2022/04/03 12:19:04;;;;;;;1.50;0.20;;;6.10;99.90;;;;;;5064050;28;20464;-81
2022/04/03 12:21:43;;;;;;;0.38;0.03;;;6.20;99.90;;;;;;5079680;28;20052;-82
2022/04/03 12:24:14;;;;;;;1.45;0.10;;;6.30;99.90;;;;;;5083744;28;20040;-88
2022/04/03 12:26:46;;;;;;;1.38;0.10;;;6.50;99.90;;;;;;5078303;28;20041;-83
2022/04/03 12:29:12;;;;;;;3.03;0.40;;;6.70;99.90;;;;;;5087089;28;20087;-76
2022/04/03 12:31:39;;;;;;;16.65;10.32;;;6.60;99.90;;;;;;5086095;28;20554;-84
2022/04/03 12:34:04;;;;;;;3.65;1.35;;;6.20;99.90;;;;;;5070923;28;20127;-82
2022/04/03 12:36:47;;;;;;;1.05;0.25;;;6.70;99.90;;;;;;5071801;28;20089;-86
2022/04/03 12:39:31;;;;;;;3.60;0.40;;;6.70;99.90;;;;;;5088615;28;20040;-87
2022/04/03 12:42:34;;;;;;;2.03;0.85;;;6.80;99.90;;;;;;5080046;28;20036;-86
2022/04/03 12:45:12;;;;;;;5.47;1.27;;;6.70;99.90;;;;;;5068446;28;20070;-88
2022/04/03 12:47:40;;;;;;;5.93;0.30;;;6.70;99.90;;;;;;5088801;28;20104;-80
2022/04/03 12:50:06;;;;;;;0.75;0.35;;;8.40;99.90;;;;;;5087107;28;20063;-86
2022/04/03 12:52:43;;;;;;;2.45;0.77;;;6.50;99.90;;;;;;5089687;28;20456;-77
2022/04/03 12:55:21;;;;;;;3.00;0.60;;;6.60;99.90;;;;;;5087895;28;20044;-85
2022/04/03 13:00:46;;;;;;;5.35;0.88;;;6.50;99.90;;;;;;5088246;28;20119;-87
2022/04/03 13:03:27;;;;;;;1.02;0.60;;;6.50;99.90;;;;;;5087286;28;20044;-85
2022/04/03 13:05:55;;;;;;;2.15;0.65;;;6.60;99.90;;;;;;5087462;28;20051;-84